sensor_id;sensor_type;location;lat;lon;timestamp;P1;durP1;ratioP1;P2;durP2;ratioP2
6113;SDS011;3087;48.392;10.836;2023-08-20T00:02:10;9.02;;;5.35;;
6113;SDS011;3087;48.392;10.836;2023-08-20T00:04:36;9.77;;;5.93;;
6113;SDS011;3087;48.392;10.836;2023-08-20T00:07:02;7.78;;;5.30;;
6113;SDS011;3087;48.392;10.836;2023-08-20T00:09:28;11.55;;;5.38;;
6113;SDS011;3087;48.392;10.836;2023-08-20T00:11:55;10.13;;;5.40;;
6113;SDS011;3087;48.392;10.836;2023-08-20T00:14:21;6.10;;;5.15;;
6113;SDS011;3087;48.392;10.836;2023-08-20T00:17:23;8.20;;;5.18;;
6113;SDS011;3087;48.392;10.836;2023-08-20T00:19:52;10.75;;;5.80;;
6113;SDS011;3087;48.392;10.836;2023-08-20T00:22:18;11.35;;;5.68;;
6113;SDS011;3087;48.392;10.836;2023-08-20T00:24:46;8.52;;;5.20;;
6113;SDS011;3087;48.392;10.836;2023-08-20T00:27:12;9.00;;;5.57;;
6113;SDS011;3087;48.392;10.836;2023-08-20T00:29:37;8.00;;;5.22;;
6113;SDS011;3087;48.392;10.836;2023-08-20T00:32:03;8.73;;;5.30;;
6113;SDS011;3087;48.392;10.836;2023-08-20T00:34:29;5.70;;;5.13;;
6113;SDS011;3087;48.392;10.836;2023-08-20T00:36:54;6.82;;;5.40;;
6113;SDS011;3087;48.392;10.836;2023-08-20T00:39:20;7.90;;;5.85;;
6113;SDS011;3087;48.392;10.836;2023-08-20T00:41:45;9.18;;;5.22;;
6113;SDS011;3087;48.392;10.836;2023-08-20T00:44:11;7.47;;;5.60;;
6113;SDS011;3087;48.392;10.836;2023-08-20T00:46:36;9.20;;;5.28;;
6113;SDS011;3087;48.392;10.836;2023-08-20T00:49:02;9.45;;;5.30;;
6113;SDS011;3087;48.392;10.836;2023-08-20T00:51:28;8.32;;;4.82;;
6113;SDS011;3087;48.392;10.836;2023-08-20T00:53:54;9.23;;;5.47;;
6113;SDS011;3087;48.392;10.836;2023-08-20T00:56:20;8.90;;;5.20;;
6113;SDS011;3087;48.392;10.836;2023-08-20T00:58:46;8.15;;;6.15;;
6113;SDS011;3087;48.392;10.836;2023-08-20T01:01:12;7.47;;;5.45;;
6113;SDS011;3087;48.392;10.836;2023-08-20T01:03:37;5.38;;;4.75;;
6113;SDS011;3087;48.392;10.836;2023-08-20T01:06:07;10.85;;;5.82;;
6113;SDS011;3087;48.392;10.836;2023-08-20T01:08:41;8.98;;;5.53;;
6113;SDS011;3087;48.392;10.836;2023-08-20T01:11:12;5.93;;;5.32;;
6113;SDS011;3087;48.392;10.836;2023-08-20T01:13:42;9.80;;;6.05;;
6113;SDS011;3087;48.392;10.836;2023-08-20T01:16:08;7.72;;;6.13;;
6113;SDS011;3087;48.392;10.836;2023-08-20T01:18:34;7.80;;;6.85;;
6113;SDS011;3087;48.392;10.836;2023-08-20T01:21:04;10.63;;;6.00;;
6113;SDS011;3087;48.392;10.836;2023-08-20T01:29:23;10.95;;;5.88;;
6113;SDS011;3087;48.392;10.836;2023-08-20T01:31:51;7.18;;;5.05;;
6113;SDS011;3087;48.392;10.836;2023-08-20T01:34:18;8.02;;;5.47;;
6113;SDS011;3087;48.392;10.836;2023-08-20T01:36:43;9.07;;;5.47;;
6113;SDS011;3087;48.392;10.836;2023-08-20T01:39:09;11.40;;;6.07;;
6113;SDS011;3087;48.392;10.836;2023-08-20T01:41:34;6.68;;;5.88;;
6113;SDS011;3087;48.392;10.836;2023-08-20T01:44:00;8.20;;;4.72;;
6113;SDS011;3087;48.392;10.836;2023-08-20T01:46:26;9.23;;;6.45;;
6113;SDS011;3087;48.392;10.836;2023-08-20T01:48:51;9.05;;;5.25;;
6113;SDS011;3087;48.392;10.836;2023-08-20T01:51:17;11.75;;;5.53;;
6113;SDS011;3087;48.392;10.836;2023-08-20T01:53:42;8.18;;;5.45;;
6113;SDS011;3087;48.392;10.836;2023-08-20T01:56:11;8.43;;;5.97;;
6113;SDS011;3087;48.392;10.836;2023-08-20T01:58:38;6.60;;;5.40;;
6113;SDS011;3087;48.392;10.836;2023-08-20T02:01:03;7.60;;;5.20;;
6113;SDS011;3087;48.392;10.836;2023-08-20T02:03:29;6.28;;;5.15;;
6113;SDS011;3087;48.392;10.836;2023-08-20T02:05:55;7.43;;;5.22;;
6113;SDS011;3087;48.392;10.836;2023-08-20T02:08:20;10.30;;;6.75;;
6113;SDS011;3087;48.392;10.836;2023-08-20T02:10:46;6.45;;;4.60;;
6113;SDS011;3087;48.392;10.836;2023-08-20T02:13:11;8.25;;;5.00;;
6113;SDS011;3087;48.392;10.836;2023-08-20T02:15:37;6.50;;;4.80;;
6113;SDS011;3087;48.392;10.836;2023-08-20T02:18:02;6.60;;;4.65;;
6113;SDS011;3087;48.392;10.836;2023-08-20T02:20:28;7.93;;;4.95;;
6113;SDS011;3087;48.392;10.836;2023-08-20T02:22:54;8.48;;;6.07;;
6113;SDS011;3087;48.392;10.836;2023-08-20T02:25:20;8.55;;;6.00;;
6113;SDS011;3087;48.392;10.836;2023-08-20T02:27:45;9.95;;;5.75;;
6113;SDS011;3087;48.392;10.836;2023-08-20T02:30:11;6.93;;;6.05;;
6113;SDS011;3087;48.392;10.836;2023-08-20T02:32:38;6.35;;;5.55;;
6113;SDS011;3087;48.392;10.836;2023-08-20T02:35:04;7.93;;;5.28;;
6113;SDS011;3087;48.392;10.836;2023-08-20T02:37:31;7.20;;;5.70;;
6113;SDS011;3087;48.392;10.836;2023-08-20T02:39:57;8.77;;;5.70;;
6113;SDS011;3087;48.392;10.836;2023-08-20T02:42:22;8.40;;;5.22;;
6113;SDS011;3087;48.392;10.836;2023-08-20T02:44:48;6.43;;;5.47;;
6113;SDS011;3087;48.392;10.836;2023-08-20T02:47:13;7.43;;;5.32;;
6113;SDS011;3087;48.392;10.836;2023-08-20T02:49:39;6.68;;;5.55;;
6113;SDS011;3087;48.392;10.836;2023-08-20T02:52:05;9.23;;;4.88;;
6113;SDS011;3087;48.392;10.836;2023-08-20T02:54:30;9.18;;;5.43;;
6113;SDS011;3087;48.392;10.836;2023-08-20T02:56:57;11.18;;;5.15;;
6113;SDS011;3087;48.392;10.836;2023-08-20T02:59:23;8.65;;;4.53;;
6113;SDS011;3087;48.392;10.836;2023-08-20T03:01:49;8.18;;;5.60;;
6113;SDS011;3087;48.392;10.836;2023-08-20T03:04:14;6.20;;;5.32;;
6113;SDS011;3087;48.392;10.836;2023-08-20T03:06:40;10.05;;;5.97;;
6113;SDS011;3087;48.392;10.836;2023-08-20T03:09:05;6.13;;;5.40;;
6113;SDS011;3087;48.392;10.836;2023-08-20T03:11:31;6.20;;;5.22;;
6113;SDS011;3087;48.392;10.836;2023-08-20T03:13:57;7.60;;;5.70;;
6113;SDS011;3087;48.392;10.836;2023-08-20T03:16:22;10.35;;;5.80;;
6113;SDS011;3087;48.392;10.836;2023-08-20T03:18:48;7.82;;;6.28;;
6113;SDS011;3087;48.392;10.836;2023-08-20T03:21:13;10.93;;;6.13;;
6113;SDS011;3087;48.392;10.836;2023-08-20T03:23:39;12.55;;;5.82;;
6113;SDS011;3087;48.392;10.836;2023-08-20T03:26:04;7.05;;;5.28;;
6113;SDS011;3087;48.392;10.836;2023-08-20T03:28:30;9.55;;;5.75;;
6113;SDS011;3087;48.392;10.836;2023-08-20T03:30:58;7.38;;;5.35;;
6113;SDS011;3087;48.392;10.836;2023-08-20T03:33:26;6.70;;;6.00;;
6113;SDS011;3087;48.392;10.836;2023-08-20T03:35:51;12.48;;;6.50;;
6113;SDS011;3087;48.392;10.836;2023-08-20T03:38:17;11.23;;;6.38;;
6113;SDS011;3087;48.392;10.836;2023-08-20T03:40:42;8.25;;;5.63;;
6113;SDS011;3087;48.392;10.836;2023-08-20T03:43:10;8.00;;;5.47;;
6113;SDS011;3087;48.392;10.836;2023-08-20T03:45:35;5.70;;;5.20;;
6113;SDS011;3087;48.392;10.836;2023-08-20T03:48:01;12.50;;;6.57;;
6113;SDS011;3087;48.392;10.836;2023-08-20T03:50:27;10.43;;;7.28;;
6113;SDS011;3087;48.392;10.836;2023-08-20T03:52:52;11.75;;;6.55;;
6113;SDS011;3087;48.392;10.836;2023-08-20T03:55:18;7.25;;;6.25;;
6113;SDS011;3087;48.392;10.836;2023-08-20T03:57:43;8.70;;;5.78;;
6113;SDS011;3087;48.392;10.836;2023-08-20T04:00:09;7.93;;;6.15;;
6113;SDS011;3087;48.392;10.836;2023-08-20T04:02:37;9.05;;;6.18;;
6113;SDS011;3087;48.392;10.836;2023-08-20T04:05:03;8.02;;;6.80;;
6113;SDS011;3087;48.392;10.836;2023-08-20T04:07:29;9.15;;;5.70;;
6113;SDS011;3087;48.392;10.836;2023-08-20T04:09:55;8.63;;;5.55;;
6113;SDS011;3087;48.392;10.836;2023-08-20T04:12:20;9.00;;;5.70;;
6113;SDS011;3087;48.392;10.836;2023-08-20T04:14:46;8.20;;;5.90;;
6113;SDS011;3087;48.392;10.836;2023-08-20T04:17:12;6.03;;;5.05;;
6113;SDS011;3087;48.392;10.836;2023-08-20T04:19:37;8.07;;;5.35;;
6113;SDS011;3087;48.392;10.836;2023-08-20T04:22:03;6.75;;;4.65;;
6113;SDS011;3087;48.392;10.836;2023-08-20T04:24:28;9.75;;;5.72;;
6113;SDS011;3087;48.392;10.836;2023-08-20T04:26:54;9.23;;;6.15;;
6113;SDS011;3087;48.392;10.836;2023-08-20T04:29:19;8.55;;;5.95;;
6113;SDS011;3087;48.392;10.836;2023-08-20T04:31:45;9.73;;;5.15;;
6113;SDS011;3087;48.392;10.836;2023-08-20T04:34:11;5.93;;;5.05;;
6113;SDS011;3087;48.392;10.836;2023-08-20T04:36:36;10.35;;;6.10;;
6113;SDS011;3087;48.392;10.836;2023-08-20T04:39:02;8.88;;;7.13;;
6113;SDS011;3087;48.392;10.836;2023-08-20T04:41:27;7.45;;;6.70;;
6113;SDS011;3087;48.392;10.836;2023-08-20T04:43:53;7.45;;;5.60;;
6113;SDS011;3087;48.392;10.836;2023-08-20T04:46:18;8.02;;;5.45;;
6113;SDS011;3087;48.392;10.836;2023-08-20T04:48:45;8.20;;;4.93;;
6113;SDS011;3087;48.392;10.836;2023-08-20T04:51:11;7.10;;;4.75;;
6113;SDS011;3087;48.392;10.836;2023-08-20T04:53:36;9.65;;;5.65;;
6113;SDS011;3087;48.392;10.836;2023-08-20T04:56:02;5.80;;;5.20;;
6113;SDS011;3087;48.392;10.836;2023-08-20T04:58:28;8.38;;;5.38;;
6113;SDS011;3087;48.392;10.836;2023-08-20T05:00:53;6.75;;;5.03;;
6113;SDS011;3087;48.392;10.836;2023-08-20T05:03:19;9.82;;;6.80;;
6113;SDS011;3087;48.392;10.836;2023-08-20T05:05:48;12.27;;;6.20;;
6113;SDS011;3087;48.392;10.836;2023-08-20T05:08:14;8.90;;;6.25;;
6113;SDS011;3087;48.392;10.836;2023-08-20T05:10:40;8.82;;;6.70;;
6113;SDS011;3087;48.392;10.836;2023-08-20T05:13:05;9.85;;;6.28;;
6113;SDS011;3087;48.392;10.836;2023-08-20T05:15:31;10.20;;;6.38;;
6113;SDS011;3087;48.392;10.836;2023-08-20T05:17:56;6.85;;;6.20;;
6113;SDS011;3087;48.392;10.836;2023-08-20T05:20:22;9.23;;;6.18;;
6113;SDS011;3087;48.392;10.836;2023-08-20T05:22:48;10.57;;;6.97;;
6113;SDS011;3087;48.392;10.836;2023-08-20T05:25:13;10.43;;;6.88;;
6113;SDS011;3087;48.392;10.836;2023-08-20T05:27:39;9.00;;;6.85;;
6113;SDS011;3087;48.392;10.836;2023-08-20T05:30:05;11.82;;;7.00;;
6113;SDS011;3087;48.392;10.836;2023-08-20T05:32:33;10.13;;;6.70;;
6113;SDS011;3087;48.392;10.836;2023-08-20T05:34:59;8.55;;;6.68;;
6113;SDS011;3087;48.392;10.836;2023-08-20T05:37:24;11.18;;;7.85;;
6113;SDS011;3087;48.392;10.836;2023-08-20T05:39:50;11.55;;;7.47;;
6113;SDS011;3087;48.392;10.836;2023-08-20T05:42:16;9.48;;;6.32;;
6113;SDS011;3087;48.392;10.836;2023-08-20T05:44:41;13.35;;;7.05;;
6113;SDS011;3087;48.392;10.836;2023-08-20T05:47:07;8.73;;;6.97;;
6113;SDS011;3087;48.392;10.836;2023-08-20T05:49:33;10.43;;;9.07;;
6113;SDS011;3087;48.392;10.836;2023-08-20T05:51:58;9.85;;;7.97;;
6113;SDS011;3087;48.392;10.836;2023-08-20T05:54:24;9.13;;;7.38;;
6113;SDS011;3087;48.392;10.836;2023-08-20T05:56:49;7.07;;;6.38;;
6113;SDS011;3087;48.392;10.836;2023-08-20T05:59:15;11.07;;;6.28;;
6113;SDS011;3087;48.392;10.836;2023-08-20T06:01:41;10.30;;;6.47;;
6113;SDS011;3087;48.392;10.836;2023-08-20T06:04:06;13.63;;;6.65;;
6113;SDS011;3087;48.392;10.836;2023-08-20T06:06:32;8.07;;;6.32;;
6113;SDS011;3087;48.392;10.836;2023-08-20T06:08:57;9.82;;;6.13;;
6113;SDS011;3087;48.392;10.836;2023-08-20T06:11:23;6.63;;;5.78;;
6113;SDS011;3087;48.392;10.836;2023-08-20T06:13:49;11.32;;;6.65;;
6113;SDS011;3087;48.392;10.836;2023-08-20T06:16:14;7.25;;;5.85;;
6113;SDS011;3087;48.392;10.836;2023-08-20T06:18:40;7.70;;;6.50;;
6113;SDS011;3087;48.392;10.836;2023-08-20T06:21:05;14.27;;;7.30;;
6113;SDS011;3087;48.392;10.836;2023-08-20T06:23:31;9.18;;;7.10;;
6113;SDS011;3087;48.392;10.836;2023-08-20T06:25:56;9.45;;;7.55;;
6113;SDS011;3087;48.392;10.836;2023-08-20T06:28:22;7.85;;;7.05;;
6113;SDS011;3087;48.392;10.836;2023-08-20T06:30:48;8.85;;;7.35;;
6113;SDS011;3087;48.392;10.836;2023-08-20T06:33:13;11.30;;;6.95;;
6113;SDS011;3087;48.392;10.836;2023-08-20T06:35:39;9.60;;;6.75;;
6113;SDS011;3087;48.392;10.836;2023-08-20T06:38:08;10.57;;;7.00;;
6113;SDS011;3087;48.392;10.836;2023-08-20T06:40:34;11.60;;;7.90;;
6113;SDS011;3087;48.392;10.836;2023-08-20T06:42:59;12.10;;;7.43;;
6113;SDS011;3087;48.392;10.836;2023-08-20T06:45:25;8.30;;;7.30;;
6113;SDS011;3087;48.392;10.836;2023-08-20T06:47:50;10.80;;;8.02;;
6113;SDS011;3087;48.392;10.836;2023-08-20T06:50:16;15.65;;;10.18;;
6113;SDS011;3087;48.392;10.836;2023-08-20T06:52:42;8.40;;;7.60;;
6113;SDS011;3087;48.392;10.836;2023-08-20T06:55:08;11.32;;;7.45;;
6113;SDS011;3087;48.392;10.836;2023-08-20T06:57:33;12.45;;;7.45;;
6113;SDS011;3087;48.392;10.836;2023-08-20T06:59:59;9.02;;;7.90;;
6113;SDS011;3087;48.392;10.836;2023-08-20T07:02:25;9.90;;;7.32;;
6113;SDS011;3087;48.392;10.836;2023-08-20T07:04:51;7.78;;;6.47;;
6113;SDS011;3087;48.392;10.836;2023-08-20T07:07:16;7.40;;;6.60;;
6113;SDS011;3087;48.392;10.836;2023-08-20T07:09:42;8.20;;;6.72;;
6113;SDS011;3087;48.392;10.836;2023-08-20T07:12:07;9.32;;;6.82;;
6113;SDS011;3087;48.392;10.836;2023-08-20T07:14:33;7.93;;;7.13;;
6113;SDS011;3087;48.392;10.836;2023-08-20T07:16:59;11.10;;;7.10;;
6113;SDS011;3087;48.392;10.836;2023-08-20T07:19:25;7.88;;;6.65;;
6113;SDS011;3087;48.392;10.836;2023-08-20T07:21:51;7.22;;;6.18;;
6113;SDS011;3087;48.392;10.836;2023-08-20T07:24:16;11.63;;;7.38;;
6113;SDS011;3087;48.392;10.836;2023-08-20T07:26:42;10.13;;;6.35;;
6113;SDS011;3087;48.392;10.836;2023-08-20T07:29:08;9.88;;;6.47;;
6113;SDS011;3087;48.392;10.836;2023-08-20T07:31:34;7.40;;;6.53;;
6113;SDS011;3087;48.392;10.836;2023-08-20T07:34:00;8.65;;;6.20;;
6113;SDS011;3087;48.392;10.836;2023-08-20T07:36:27;10.02;;;6.28;;
6113;SDS011;3087;48.392;10.836;2023-08-20T07:38:54;9.43;;;6.80;;
6113;SDS011;3087;48.392;10.836;2023-08-20T07:41:20;10.05;;;6.25;;
6113;SDS011;3087;48.392;10.836;2023-08-20T07:43:46;11.90;;;6.97;;
6113;SDS011;3087;48.392;10.836;2023-08-20T07:46:13;11.20;;;6.80;;
6113;SDS011;3087;48.392;10.836;2023-08-20T07:48:39;9.63;;;6.88;;
6113;SDS011;3087;48.392;10.836;2023-08-20T07:51:05;9.55;;;6.20;;
6113;SDS011;3087;48.392;10.836;2023-08-20T07:53:31;10.70;;;6.35;;
6113;SDS011;3087;48.392;10.836;2023-08-20T07:55:57;13.43;;;7.32;;
6113;SDS011;3087;48.392;10.836;2023-08-20T07:58:23;7.95;;;6.43;;
6113;SDS011;3087;48.392;10.836;2023-08-20T08:00:49;10.07;;;6.20;;
6113;SDS011;3087;48.392;10.836;2023-08-20T08:03:14;10.27;;;6.40;;
6113;SDS011;3087;48.392;10.836;2023-08-20T08:05:42;11.27;;;6.60;;
6113;SDS011;3087;48.392;10.836;2023-08-20T08:08:17;9.07;;;6.60;;
6113;SDS011;3087;48.392;10.836;2023-08-20T08:10:44;6.90;;;5.60;;
6113;SDS011;3087;48.392;10.836;2023-08-20T08:13:11;10.60;;;5.82;;
6113;SDS011;3087;48.392;10.836;2023-08-20T08:15:37;9.63;;;5.97;;
6113;SDS011;3087;48.392;10.836;2023-08-20T08:18:02;8.88;;;5.55;;
6113;SDS011;3087;48.392;10.836;2023-08-20T08:20:28;7.93;;;5.60;;
6113;SDS011;3087;48.392;10.836;2023-08-20T08:22:54;7.65;;;5.45;;
6113;SDS011;3087;48.392;10.836;2023-08-20T08:25:19;11.10;;;6.32;;
6113;SDS011;3087;48.392;10.836;2023-08-20T08:27:45;8.73;;;5.63;;
6113;SDS011;3087;48.392;10.836;2023-08-20T08:30:11;7.15;;;5.65;;
6113;SDS011;3087;48.392;10.836;2023-08-20T08:32:36;6.03;;;4.85;;
6113;SDS011;3087;48.392;10.836;2023-08-20T08:35:02;8.00;;;5.45;;
6113;SDS011;3087;48.392;10.836;2023-08-20T08:37:28;10.05;;;5.80;;
6113;SDS011;3087;48.392;10.836;2023-08-20T08:39:53;8.60;;;5.30;;
6113;SDS011;3087;48.392;10.836;2023-08-20T08:42:19;7.10;;;4.97;;
6113;SDS011;3087;48.392;10.836;2023-08-20T08:44:49;10.60;;;5.85;;
6113;SDS011;3087;48.392;10.836;2023-08-20T08:47:15;6.50;;;5.47;;
6113;SDS011;3087;48.392;10.836;2023-08-20T08:49:41;8.07;;;5.68;;
6113;SDS011;3087;48.392;10.836;2023-08-20T08:52:09;10.15;;;5.47;;
6113;SDS011;3087;48.392;10.836;2023-08-20T08:54:36;9.25;;;6.10;;
6113;SDS011;3087;48.392;10.836;2023-08-20T08:57:01;8.35;;;4.82;;
6113;SDS011;3087;48.392;10.836;2023-08-20T08:59:27;8.80;;;5.35;;
6113;SDS011;3087;48.392;10.836;2023-08-20T09:01:53;8.80;;;5.35;;
6113;SDS011;3087;48.392;10.836;2023-08-20T09:04:21;7.60;;;4.85;;
6113;SDS011;3087;48.392;10.836;2023-08-20T09:06:49;8.93;;;5.78;;
6113;SDS011;3087;48.392;10.836;2023-08-20T09:09:19;11.32;;;5.68;;
6113;SDS011;3087;48.392;10.836;2023-08-20T09:11:46;8.10;;;5.38;;
6113;SDS011;3087;48.392;10.836;2023-08-20T09:14:27;11.73;;;5.00;;
6113;SDS011;3087;48.392;10.836;2023-08-20T09:16:57;5.85;;;4.63;;
6113;SDS011;3087;48.392;10.836;2023-08-20T09:19:24;7.63;;;4.90;;
6113;SDS011;3087;48.392;10.836;2023-08-20T09:21:55;8.18;;;4.57;;
6113;SDS011;3087;48.392;10.836;2023-08-20T09:24:32;7.47;;;4.95;;
6113;SDS011;3087;48.392;10.836;2023-08-20T09:27:10;8.70;;;5.22;;
6113;SDS011;3087;48.392;10.836;2023-08-20T09:29:45;7.00;;;5.00;;
6113;SDS011;3087;48.392;10.836;2023-08-20T09:32:19;10.13;;;5.32;;
6113;SDS011;3087;48.392;10.836;2023-08-20T09:34:49;9.30;;;5.00;;
6113;SDS011;3087;48.392;10.836;2023-08-20T09:37:16;7.82;;;4.93;;
6113;SDS011;3087;48.392;10.836;2023-08-20T09:39:43;8.68;;;4.72;;
6113;SDS011;3087;48.392;10.836;2023-08-20T09:42:11;4.93;;;4.40;;
6113;SDS011;3087;48.392;10.836;2023-08-20T09:44:38;5.57;;;4.22;;
6113;SDS011;3087;48.392;10.836;2023-08-20T09:47:06;6.88;;;4.60;;
6113;SDS011;3087;48.392;10.836;2023-08-20T09:49:36;4.65;;;3.88;;
6113;SDS011;3087;48.392;10.836;2023-08-20T09:52:10;7.15;;;4.72;;
6113;SDS011;3087;48.392;10.836;2023-08-20T10:00:07;7.82;;;4.45;;
6113;SDS011;3087;48.392;10.836;2023-08-20T10:02:38;5.75;;;4.32;;
6113;SDS011;3087;48.392;10.836;2023-08-20T10:05:07;9.40;;;4.30;;
6113;SDS011;3087;48.392;10.836;2023-08-20T10:07:34;8.85;;;5.10;;
6113;SDS011;3087;48.392;10.836;2023-08-20T10:10:01;6.10;;;4.25;;
6113;SDS011;3087;48.392;10.836;2023-08-20T10:12:28;8.48;;;4.35;;
6113;SDS011;3087;48.392;10.836;2023-08-20T10:14:58;6.90;;;4.47;;
6113;SDS011;3087;48.392;10.836;2023-08-20T10:17:24;8.05;;;4.50;;
6113;SDS011;3087;48.392;10.836;2023-08-20T10:19:53;5.05;;;4.00;;
6113;SDS011;3087;48.392;10.836;2023-08-20T10:22:20;5.55;;;4.18;;
6113;SDS011;3087;48.392;10.836;2023-08-20T10:24:49;6.75;;;4.85;;
6113;SDS011;3087;48.392;10.836;2023-08-20T10:27:33;6.07;;;4.50;;
6113;SDS011;3087;48.392;10.836;2023-08-20T10:30:09;5.63;;;4.25;;
6113;SDS011;3087;48.392;10.836;2023-08-20T10:32:53;4.85;;;3.90;;
6113;SDS011;3087;48.392;10.836;2023-08-20T10:35:49;5.38;;;3.92;;
6113;SDS011;3087;48.392;10.836;2023-08-20T10:38:15;5.10;;;3.97;;
6113;SDS011;3087;48.392;10.836;2023-08-20T10:40:49;8.30;;;4.40;;
6113;SDS011;3087;48.392;10.836;2023-08-20T10:48:33;7.97;;;4.35;;
6113;SDS011;3087;48.392;10.836;2023-08-20T10:51:16;10.63;;;4.45;;
6113;SDS011;3087;48.392;10.836;2023-08-20T10:56:41;7.70;;;3.83;;
6113;SDS011;3087;48.392;10.836;2023-08-20T10:59:09;7.60;;;4.07;;
6113;SDS011;3087;48.392;10.836;2023-08-20T11:01:48;6.97;;;4.18;;
6113;SDS011;3087;48.392;10.836;2023-08-20T11:04:15;8.77;;;4.30;;
6113;SDS011;3087;48.392;10.836;2023-08-20T11:06:42;5.75;;;3.60;;
6113;SDS011;3087;48.392;10.836;2023-08-20T11:09:08;8.52;;;4.25;;
6113;SDS011;3087;48.392;10.836;2023-08-20T11:11:35;6.40;;;4.22;;
6113;SDS011;3087;48.392;10.836;2023-08-20T11:14:05;8.82;;;4.40;;
6113;SDS011;3087;48.392;10.836;2023-08-20T11:16:34;7.90;;;3.78;;
6113;SDS011;3087;48.392;10.836;2023-08-20T11:19:04;4.95;;;3.78;;
6113;SDS011;3087;48.392;10.836;2023-08-20T11:21:34;6.68;;;4.20;;
6113;SDS011;3087;48.392;10.836;2023-08-20T11:24:00;5.28;;;4.03;;
6113;SDS011;3087;48.392;10.836;2023-08-20T11:26:26;7.82;;;5.35;;
6113;SDS011;3087;48.392;10.836;2023-08-20T11:28:52;9.77;;;7.10;;
6113;SDS011;3087;48.392;10.836;2023-08-20T11:31:18;5.65;;;3.63;;
6113;SDS011;3087;48.392;10.836;2023-08-20T11:33:44;4.65;;;3.78;;
6113;SDS011;3087;48.392;10.836;2023-08-20T11:36:10;7.03;;;4.05;;
6113;SDS011;3087;48.392;10.836;2023-08-20T11:38:36;6.03;;;3.85;;
6113;SDS011;3087;48.392;10.836;2023-08-20T11:41:02;7.53;;;3.70;;
6113;SDS011;3087;48.392;10.836;2023-08-20T11:43:28;7.72;;;3.95;;
6113;SDS011;3087;48.392;10.836;2023-08-20T11:45:54;6.07;;;3.95;;
6113;SDS011;3087;48.392;10.836;2023-08-20T11:48:20;4.85;;;3.10;;
6113;SDS011;3087;48.392;10.836;2023-08-20T11:50:47;6.68;;;3.53;;
6113;SDS011;3087;48.392;10.836;2023-08-20T11:53:13;7.53;;;4.25;;
6113;SDS011;3087;48.392;10.836;2023-08-20T11:55:39;6.32;;;3.97;;
6113;SDS011;3087;48.392;10.836;2023-08-20T11:58:11;7.18;;;3.60;;
6113;SDS011;3087;48.392;10.836;2023-08-20T12:00:37;5.05;;;3.38;;
6113;SDS011;3087;48.392;10.836;2023-08-20T12:03:03;5.32;;;3.65;;
6113;SDS011;3087;48.392;10.836;2023-08-20T12:05:30;5.57;;;3.63;;
6113;SDS011;3087;48.392;10.836;2023-08-20T12:08:02;6.90;;;3.80;;
6113;SDS011;3087;48.392;10.836;2023-08-20T12:10:29;6.82;;;3.55;;
6113;SDS011;3087;48.392;10.836;2023-08-20T12:12:56;6.00;;;3.50;;
6113;SDS011;3087;48.392;10.836;2023-08-20T12:15:23;5.10;;;3.75;;
6113;SDS011;3087;48.392;10.836;2023-08-20T12:18:02;7.15;;;4.00;;
6113;SDS011;3087;48.392;10.836;2023-08-20T12:20:30;6.13;;;3.60;;
6113;SDS011;3087;48.392;10.836;2023-08-20T12:23:03;7.78;;;4.20;;
6113;SDS011;3087;48.392;10.836;2023-08-20T12:25:30;5.82;;;3.30;;
6113;SDS011;3087;48.392;10.836;2023-08-20T12:27:58;9.82;;;3.67;;
6113;SDS011;3087;48.392;10.836;2023-08-20T12:30:24;6.93;;;3.50;;
6113;SDS011;3087;48.392;10.836;2023-08-20T12:32:50;5.15;;;3.72;;
6113;SDS011;3087;48.392;10.836;2023-08-20T12:35:15;6.35;;;3.30;;
6113;SDS011;3087;48.392;10.836;2023-08-20T12:37:41;4.43;;;3.53;;
6113;SDS011;3087;48.392;10.836;2023-08-20T12:40:07;6.68;;;3.70;;
6113;SDS011;3087;48.392;10.836;2023-08-20T12:42:36;3.60;;;3.00;;
6113;SDS011;3087;48.392;10.836;2023-08-20T12:45:03;4.85;;;3.28;;
6113;SDS011;3087;48.392;10.836;2023-08-20T12:47:30;4.68;;;3.28;;
6113;SDS011;3087;48.392;10.836;2023-08-20T12:49:55;5.07;;;3.10;;
6113;SDS011;3087;48.392;10.836;2023-08-20T12:52:21;5.47;;;3.33;;
6113;SDS011;3087;48.392;10.836;2023-08-20T12:54:47;5.25;;;3.40;;
6113;SDS011;3087;48.392;10.836;2023-08-20T12:57:12;6.07;;;3.63;;
6113;SDS011;3087;48.392;10.836;2023-08-20T12:59:38;4.93;;;3.47;;
6113;SDS011;3087;48.392;10.836;2023-08-20T13:02:03;8.20;;;3.65;;
6113;SDS011;3087;48.392;10.836;2023-08-20T13:04:30;6.05;;;4.10;;
6113;SDS011;3087;48.392;10.836;2023-08-20T13:06:55;5.22;;;3.70;;
6113;SDS011;3087;48.392;10.836;2023-08-20T13:09:21;5.10;;;3.53;;
6113;SDS011;3087;48.392;10.836;2023-08-20T13:11:47;6.03;;;3.45;;
6113;SDS011;3087;48.392;10.836;2023-08-20T13:14:14;5.07;;;3.35;;
6113;SDS011;3087;48.392;10.836;2023-08-20T13:16:40;5.70;;;3.10;;
6113;SDS011;3087;48.392;10.836;2023-08-20T13:19:06;3.40;;;3.10;;
6113;SDS011;3087;48.392;10.836;2023-08-20T13:21:32;4.60;;;3.30;;
6113;SDS011;3087;48.392;10.836;2023-08-20T13:23:57;6.15;;;3.28;;
6113;SDS011;3087;48.392;10.836;2023-08-20T13:26:23;5.68;;;3.47;;
6113;SDS011;3087;48.392;10.836;2023-08-20T13:28:49;4.63;;;3.35;;
6113;SDS011;3087;48.392;10.836;2023-08-20T13:31:15;4.95;;;3.45;;
6113;SDS011;3087;48.392;10.836;2023-08-20T13:33:40;4.40;;;3.38;;
6113;SDS011;3087;48.392;10.836;2023-08-20T13:36:06;7.03;;;3.85;;
6113;SDS011;3087;48.392;10.836;2023-08-20T13:38:34;8.73;;;3.97;;
6113;SDS011;3087;48.392;10.836;2023-08-20T13:41:00;5.32;;;3.22;;
6113;SDS011;3087;48.392;10.836;2023-08-20T13:43:26;4.47;;;3.47;;
6113;SDS011;3087;48.392;10.836;2023-08-20T13:45:52;4.50;;;3.42;;
6113;SDS011;3087;48.392;10.836;2023-08-20T13:48:17;4.32;;;3.70;;
6113;SDS011;3087;48.392;10.836;2023-08-20T13:50:43;4.35;;;3.30;;
6113;SDS011;3087;48.392;10.836;2023-08-20T13:53:08;5.78;;;3.80;;
6113;SDS011;3087;48.392;10.836;2023-08-20T13:55:35;9.45;;;3.60;;
6113;SDS011;3087;48.392;10.836;2023-08-20T13:58:00;6.13;;;3.65;;
6113;SDS011;3087;48.392;10.836;2023-08-20T14:00:26;5.28;;;3.63;;
6113;SDS011;3087;48.392;10.836;2023-08-20T14:02:52;7.03;;;3.20;;
6113;SDS011;3087;48.392;10.836;2023-08-20T14:05:18;7.22;;;3.50;;
6113;SDS011;3087;48.392;10.836;2023-08-20T14:07:44;3.75;;;3.22;;
6113;SDS011;3087;48.392;10.836;2023-08-20T14:10:10;5.40;;;3.38;;
6113;SDS011;3087;48.392;10.836;2023-08-20T14:12:36;5.75;;;3.25;;
6113;SDS011;3087;48.392;10.836;2023-08-20T14:15:02;3.72;;;3.00;;
6113;SDS011;3087;48.392;10.836;2023-08-20T14:17:28;5.45;;;3.25;;
6113;SDS011;3087;48.392;10.836;2023-08-20T14:19:54;4.90;;;3.03;;
6113;SDS011;3087;48.392;10.836;2023-08-20T14:22:19;6.22;;;3.58;;
6113;SDS011;3087;48.392;10.836;2023-08-20T14:24:45;4.13;;;3.40;;
6113;SDS011;3087;48.392;10.836;2023-08-20T14:27:11;6.45;;;3.67;;
6113;SDS011;3087;48.392;10.836;2023-08-20T14:29:36;5.35;;;3.60;;
6113;SDS011;3087;48.392;10.836;2023-08-20T14:32:02;5.65;;;3.92;;
6113;SDS011;3087;48.392;10.836;2023-08-20T14:34:28;5.78;;;4.07;;
6113;SDS011;3087;48.392;10.836;2023-08-20T14:36:54;4.95;;;3.75;;
6113;SDS011;3087;48.392;10.836;2023-08-20T14:39:20;8.15;;;3.58;;
6113;SDS011;3087;48.392;10.836;2023-08-20T14:41:45;4.45;;;3.28;;
6113;SDS011;3087;48.392;10.836;2023-08-20T14:44:11;4.10;;;3.40;;
6113;SDS011;3087;48.392;10.836;2023-08-20T14:46:37;6.60;;;3.75;;
6113;SDS011;3087;48.392;10.836;2023-08-20T14:49:03;6.45;;;3.50;;
6113;SDS011;3087;48.392;10.836;2023-08-20T14:51:29;5.80;;;3.63;;
6113;SDS011;3087;48.392;10.836;2023-08-20T14:53:54;3.97;;;3.53;;
6113;SDS011;3087;48.392;10.836;2023-08-20T14:56:20;7.32;;;4.80;;
6113;SDS011;3087;48.392;10.836;2023-08-20T14:58:45;6.05;;;3.83;;
6113;SDS011;3087;48.392;10.836;2023-08-20T15:01:11;5.88;;;3.67;;
6113;SDS011;3087;48.392;10.836;2023-08-20T15:03:37;8.18;;;3.60;;
6113;SDS011;3087;48.392;10.836;2023-08-20T15:06:04;4.95;;;3.50;;
6113;SDS011;3087;48.392;10.836;2023-08-20T15:08:29;4.97;;;3.60;;
6113;SDS011;3087;48.392;10.836;2023-08-20T15:10:56;6.25;;;3.55;;
6113;SDS011;3087;48.392;10.836;2023-08-20T15:13:23;5.43;;;3.60;;
6113;SDS011;3087;48.392;10.836;2023-08-20T15:15:53;7.93;;;3.72;;